sensor_id;sensor_type;location;lat;lon;timestamp;P1;durP1;ratioP1;P2;durP2;ratioP2
70132;SDS011;57495;49.922;7.966;2024-02-28T00:01:55;36.37;;;18.70;;
70132;SDS011;57495;49.922;7.966;2024-02-28T00:03:57;33.50;;;17.90;;
70132;SDS011;57495;49.922;7.966;2024-02-28T00:05:59;37.22;;;18.92;;
70132;SDS011;57495;49.922;7.966;2024-02-28T00:08:01;32.45;;;17.35;;
70132;SDS011;57495;49.922;7.966;2024-02-28T00:10:01;34.27;;;18.97;;
70132;SDS011;57495;49.922;7.966;2024-02-28T00:12:03;37.65;;;19.92;;
70132;SDS011;57495;49.922;7.966;2024-02-28T00:14:04;38.53;;;17.38;;
70132;SDS011;57495;49.922;7.966;2024-02-28T00:16:05;37.30;;;18.70;;
70132;SDS011;57495;49.922;7.966;2024-02-28T00:18:06;35.60;;;19.20;;
70132;SDS011;57495;49.922;7.966;2024-02-28T00:20:09;37.30;;;19.48;;
70132;SDS011;57495;49.922;7.966;2024-02-28T00:22:11;37.65;;;19.00;;
70132;SDS011;57495;49.922;7.966;2024-02-28T00:24:13;37.47;;;19.85;;
70132;SDS011;57495;49.922;7.966;2024-02-28T00:26:14;37.85;;;19.65;;
70132;SDS011;57495;49.922;7.966;2024-02-28T00:28:15;43.08;;;20.15;;
70132;SDS011;57495;49.922;7.966;2024-02-28T00:30:17;40.42;;;20.83;;
70132;SDS011;57495;49.922;7.966;2024-02-28T00:32:19;38.40;;;19.98;;
70132;SDS011;57495;49.922;7.966;2024-02-28T00:34:19;40.80;;;20.63;;
70132;SDS011;57495;49.922;7.966;2024-02-28T00:36:22;39.63;;;20.53;;
70132;SDS011;57495;49.922;7.966;2024-02-28T00:38:23;39.83;;;20.25;;
70132;SDS011;57495;49.922;7.966;2024-02-28T00:40:25;40.78;;;20.80;;
70132;SDS011;57495;49.922;7.966;2024-02-28T00:42:26;39.00;;;20.10;;
70132;SDS011;57495;49.922;7.966;2024-02-28T00:44:28;41.33;;;20.52;;
70132;SDS011;57495;49.922;7.966;2024-02-28T00:46:28;38.47;;;20.33;;
70132;SDS011;57495;49.922;7.966;2024-02-28T00:48:30;43.35;;;21.08;;
70132;SDS011;57495;49.922;7.966;2024-02-28T00:50:31;38.33;;;20.37;;
70132;SDS011;57495;49.922;7.966;2024-02-28T00:52:33;40.53;;;20.15;;
70132;SDS011;57495;49.922;7.966;2024-02-28T00:54:34;37.33;;;19.63;;
70132;SDS011;57495;49.922;7.966;2024-02-28T00:56:35;37.75;;;18.73;;
70132;SDS011;57495;49.922;7.966;2024-02-28T00:58:37;37.00;;;19.77;;
70132;SDS011;57495;49.922;7.966;2024-02-28T01:00:38;38.10;;;18.83;;
70132;SDS011;57495;49.922;7.966;2024-02-28T01:02:40;42.45;;;21.35;;
70132;SDS011;57495;49.922;7.966;2024-02-28T01:04:42;37.93;;;18.07;;
70132;SDS011;57495;49.922;7.966;2024-02-28T01:06:42;38.17;;;19.95;;
70132;SDS011;57495;49.922;7.966;2024-02-28T01:08:45;36.83;;;18.33;;
70132;SDS011;57495;49.922;7.966;2024-02-28T01:10:46;38.90;;;18.55;;
70132;SDS011;57495;49.922;7.966;2024-02-28T01:12:48;36.08;;;18.55;;
70132;SDS011;57495;49.922;7.966;2024-02-28T01:14:49;38.40;;;19.45;;
70132;SDS011;57495;49.922;7.966;2024-02-28T01:16:51;41.88;;;20.23;;
70132;SDS011;57495;49.922;7.966;2024-02-28T01:18:52;38.67;;;19.70;;
70132;SDS011;57495;49.922;7.966;2024-02-28T01:20:54;39.70;;;19.45;;
70132;SDS011;57495;49.922;7.966;2024-02-28T01:22:55;38.55;;;19.48;;
70132;SDS011;57495;49.922;7.966;2024-02-28T01:24:57;36.77;;;18.57;;
70132;SDS011;57495;49.922;7.966;2024-02-28T01:26:58;38.67;;;19.80;;
70132;SDS011;57495;49.922;7.966;2024-02-28T01:29:00;39.72;;;18.52;;
70132;SDS011;57495;49.922;7.966;2024-02-28T01:31:00;39.70;;;19.33;;
70132;SDS011;57495;49.922;7.966;2024-02-28T01:33:02;39.55;;;19.95;;
70132;SDS011;57495;49.922;7.966;2024-02-28T01:35:03;41.35;;;19.73;;
70132;SDS011;57495;49.922;7.966;2024-02-28T01:37:05;42.17;;;20.38;;
70132;SDS011;57495;49.922;7.966;2024-02-28T01:39:07;39.92;;;19.52;;
70132;SDS011;57495;49.922;7.966;2024-02-28T01:41:09;39.05;;;18.75;;
70132;SDS011;57495;49.922;7.966;2024-02-28T01:43:11;41.10;;;19.80;;
70132;SDS011;57495;49.922;7.966;2024-02-28T01:45:13;42.00;;;20.13;;
70132;SDS011;57495;49.922;7.966;2024-02-28T01:47:15;41.90;;;20.23;;
70132;SDS011;57495;49.922;7.966;2024-02-28T01:49:18;40.42;;;20.40;;
70132;SDS011;57495;49.922;7.966;2024-02-28T01:51:21;40.35;;;19.35;;
70132;SDS011;57495;49.922;7.966;2024-02-28T01:53:23;41.67;;;19.75;;
70132;SDS011;57495;49.922;7.966;2024-02-28T01:55:24;39.17;;;18.43;;
70132;SDS011;57495;49.922;7.966;2024-02-28T01:57:27;37.97;;;18.58;;
70132;SDS011;57495;49.922;7.966;2024-02-28T01:59:29;42.38;;;19.48;;
70132;SDS011;57495;49.922;7.966;2024-02-28T02:01:32;41.75;;;19.15;;
70132;SDS011;57495;49.922;7.966;2024-02-28T02:03:33;41.20;;;18.87;;
70132;SDS011;57495;49.922;7.966;2024-02-28T02:05:35;38.47;;;18.92;;
70132;SDS011;57495;49.922;7.966;2024-02-28T02:07:36;41.05;;;19.38;;
70132;SDS011;57495;49.922;7.966;2024-02-28T02:09:39;39.90;;;18.17;;
70132;SDS011;57495;49.922;7.966;2024-02-28T02:11:40;40.53;;;19.50;;
70132;SDS011;57495;49.922;7.966;2024-02-28T02:13:53;40.50;;;18.60;;
70132;SDS011;57495;49.922;7.966;2024-02-28T02:15:54;40.00;;;18.98;;
70132;SDS011;57495;49.922;7.966;2024-02-28T02:17:56;39.45;;;19.13;;
70132;SDS011;57495;49.922;7.966;2024-02-28T02:19:56;39.13;;;18.40;;
70132;SDS011;57495;49.922;7.966;2024-02-28T02:21:58;39.55;;;19.25;;
70132;SDS011;57495;49.922;7.966;2024-02-28T02:24:01;37.47;;;17.25;;
70132;SDS011;57495;49.922;7.966;2024-02-28T02:26:02;37.95;;;17.17;;
70132;SDS011;57495;49.922;7.966;2024-02-28T02:28:03;40.38;;;19.77;;
70132;SDS011;57495;49.922;7.966;2024-02-28T02:30:05;38.28;;;18.02;;
70132;SDS011;57495;49.922;7.966;2024-02-28T02:32:07;36.88;;;17.38;;
70132;SDS011;57495;49.922;7.966;2024-02-28T02:34:08;38.72;;;18.25;;
70132;SDS011;57495;49.922;7.966;2024-02-28T02:36:09;34.87;;;17.10;;
70132;SDS011;57495;49.922;7.966;2024-02-28T02:38:10;37.97;;;18.23;;
70132;SDS011;57495;49.922;7.966;2024-02-28T02:40:15;39.65;;;17.65;;
70132;SDS011;57495;49.922;7.966;2024-02-28T02:42:16;37.17;;;18.83;;
70132;SDS011;57495;49.922;7.966;2024-02-28T02:44:18;40.03;;;18.58;;
70132;SDS011;57495;49.922;7.966;2024-02-28T02:46:19;36.92;;;17.13;;
70132;SDS011;57495;49.922;7.966;2024-02-28T02:48:21;39.20;;;17.88;;
70132;SDS011;57495;49.922;7.966;2024-02-28T02:50:22;40.50;;;17.55;;
70132;SDS011;57495;49.922;7.966;2024-02-28T02:52:23;38.55;;;18.98;;
70132;SDS011;57495;49.922;7.966;2024-02-28T02:54:24;36.30;;;17.75;;
70132;SDS011;57495;49.922;7.966;2024-02-28T02:56:27;40.67;;;19.38;;
70132;SDS011;57495;49.922;7.966;2024-02-28T02:58:28;36.55;;;17.15;;
70132;SDS011;57495;49.922;7.966;2024-02-28T03:00:29;36.65;;;17.92;;
70132;SDS011;57495;49.922;7.966;2024-02-28T03:02:31;38.90;;;18.27;;
70132;SDS011;57495;49.922;7.966;2024-02-28T03:04:32;35.22;;;16.88;;
70132;SDS011;57495;49.922;7.966;2024-02-28T03:06:33;38.30;;;17.83;;
70132;SDS011;57495;49.922;7.966;2024-02-28T03:08:34;32.97;;;16.35;;
70132;SDS011;57495;49.922;7.966;2024-02-28T03:10:39;36.05;;;17.25;;
70132;SDS011;57495;49.922;7.966;2024-02-28T03:12:41;33.15;;;15.55;;
70132;SDS011;57495;49.922;7.966;2024-02-28T03:14:43;37.33;;;17.63;;
70132;SDS011;57495;49.922;7.966;2024-02-28T03:16:44;36.08;;;17.38;;
70132;SDS011;57495;49.922;7.966;2024-02-28T03:18:47;36.80;;;16.95;;
70132;SDS011;57495;49.922;7.966;2024-02-28T03:20:49;36.47;;;17.35;;
70132;SDS011;57495;49.922;7.966;2024-02-28T03:22:50;36.25;;;16.95;;
70132;SDS011;57495;49.922;7.966;2024-02-28T03:24:52;34.83;;;16.45;;
70132;SDS011;57495;49.922;7.966;2024-02-28T03:26:53;36.75;;;16.27;;
70132;SDS011;57495;49.922;7.966;2024-02-28T03:28:56;35.95;;;17.08;;
70132;SDS011;57495;49.922;7.966;2024-02-28T03:30:57;38.55;;;17.58;;
70132;SDS011;57495;49.922;7.966;2024-02-28T03:32:58;36.13;;;16.75;;
70132;SDS011;57495;49.922;7.966;2024-02-28T03:34:59;36.13;;;16.98;;
70132;SDS011;57495;49.922;7.966;2024-02-28T03:37:01;36.83;;;17.40;;
70132;SDS011;57495;49.922;7.966;2024-02-28T03:39:02;35.08;;;16.63;;
70132;SDS011;57495;49.922;7.966;2024-02-28T03:41:05;38.22;;;17.92;;
70132;SDS011;57495;49.922;7.966;2024-02-28T03:43:06;40.08;;;18.48;;
70132;SDS011;57495;49.922;7.966;2024-02-28T03:45:08;41.37;;;18.67;;
70132;SDS011;57495;49.922;7.966;2024-02-28T03:47:10;35.83;;;17.48;;
70132;SDS011;57495;49.922;7.966;2024-02-28T03:49:11;37.10;;;17.17;;
70132;SDS011;57495;49.922;7.966;2024-02-28T03:51:12;36.53;;;17.80;;
70132;SDS011;57495;49.922;7.966;2024-02-28T03:53:14;37.00;;;17.83;;
70132;SDS011;57495;49.922;7.966;2024-02-28T03:55:18;36.97;;;17.10;;
70132;SDS011;57495;49.922;7.966;2024-02-28T03:57:19;36.67;;;16.75;;
70132;SDS011;57495;49.922;7.966;2024-02-28T03:59:20;42.40;;;18.35;;
70132;SDS011;57495;49.922;7.966;2024-02-28T04:01:23;39.30;;;17.42;;
70132;SDS011;57495;49.922;7.966;2024-02-28T04:03:24;37.85;;;16.98;;
70132;SDS011;57495;49.922;7.966;2024-02-28T04:05:25;39.97;;;17.83;;
70132;SDS011;57495;49.922;7.966;2024-02-28T04:07:26;35.53;;;16.60;;
70132;SDS011;57495;49.922;7.966;2024-02-28T04:09:27;36.95;;;17.10;;
70132;SDS011;57495;49.922;7.966;2024-02-28T04:11:28;39.07;;;17.87;;
70132;SDS011;57495;49.922;7.966;2024-02-28T04:13:29;40.05;;;18.63;;
70132;SDS011;57495;49.922;7.966;2024-02-28T04:15:31;43.38;;;19.17;;
70132;SDS011;57495;49.922;7.966;2024-02-28T04:17:33;43.45;;;19.02;;
70132;SDS011;57495;49.922;7.966;2024-02-28T04:19:35;46.85;;;19.80;;
70132;SDS011;57495;49.922;7.966;2024-02-28T04:21:37;40.17;;;17.40;;
70132;SDS011;57495;49.922;7.966;2024-02-28T04:23:37;39.17;;;17.50;;
70132;SDS011;57495;49.922;7.966;2024-02-28T04:25:39;42.40;;;17.08;;
70132;SDS011;57495;49.922;7.966;2024-02-28T04:27:40;40.00;;;17.15;;
70132;SDS011;57495;49.922;7.966;2024-02-28T04:29:41;39.90;;;17.93;;
70132;SDS011;57495;49.922;7.966;2024-02-28T04:31:42;40.63;;;18.33;;
70132;SDS011;57495;49.922;7.966;2024-02-28T04:33:45;40.60;;;17.48;;
70132;SDS011;57495;49.922;7.966;2024-02-28T04:35:45;40.75;;;17.50;;
70132;SDS011;57495;49.922;7.966;2024-02-28T04:37:47;40.35;;;17.70;;
70132;SDS011;57495;49.922;7.966;2024-02-28T04:39:48;41.53;;;17.83;;
70132;SDS011;57495;49.922;7.966;2024-02-28T04:41:49;42.92;;;17.90;;
70132;SDS011;57495;49.922;7.966;2024-02-28T04:43:51;40.83;;;18.02;;
70132;SDS011;57495;49.922;7.966;2024-02-28T04:45:52;40.17;;;17.52;;
70132;SDS011;57495;49.922;7.966;2024-02-28T04:47:54;39.17;;;16.83;;
70132;SDS011;57495;49.922;7.966;2024-02-28T04:49:58;39.97;;;17.00;;
70132;SDS011;57495;49.922;7.966;2024-02-28T04:51:58;41.85;;;17.35;;
70132;SDS011;57495;49.922;7.966;2024-02-28T04:54:00;39.13;;;18.02;;
70132;SDS011;57495;49.922;7.966;2024-02-28T04:56:01;44.63;;;18.40;;
70132;SDS011;57495;49.922;7.966;2024-02-28T04:58:03;43.90;;;19.02;;
70132;SDS011;57495;49.922;7.966;2024-02-28T05:00:05;40.10;;;17.65;;
70132;SDS011;57495;49.922;7.966;2024-02-28T05:02:07;46.08;;;19.40;;
70132;SDS011;57495;49.922;7.966;2024-02-28T05:04:09;46.97;;;19.63;;
70132;SDS011;57495;49.922;7.966;2024-02-28T05:06:12;46.13;;;19.17;;
70132;SDS011;57495;49.922;7.966;2024-02-28T05:08:13;44.70;;;19.05;;
70132;SDS011;57495;49.922;7.966;2024-02-28T05:10:15;45.33;;;19.98;;
70132;SDS011;57495;49.922;7.966;2024-02-28T05:12:16;37.45;;;17.25;;
70132;SDS011;57495;49.922;7.966;2024-02-28T05:14:17;43.55;;;18.25;;
70132;SDS011;57495;49.922;7.966;2024-02-28T05:16:19;40.33;;;18.25;;
70132;SDS011;57495;49.922;7.966;2024-02-28T05:18:21;40.90;;;17.77;;
70132;SDS011;57495;49.922;7.966;2024-02-28T05:20:22;42.22;;;17.33;;
70132;SDS011;57495;49.922;7.966;2024-02-28T05:22:25;37.30;;;17.83;;
70132;SDS011;57495;49.922;7.966;2024-02-28T05:24:27;35.63;;;16.30;;
70132;SDS011;57495;49.922;7.966;2024-02-28T05:26:27;39.27;;;17.20;;
70132;SDS011;57495;49.922;7.966;2024-02-28T05:28:31;39.53;;;17.05;;
70132;SDS011;57495;49.922;7.966;2024-02-28T05:30:33;40.63;;;17.63;;
70132;SDS011;57495;49.922;7.966;2024-02-28T05:32:35;39.95;;;17.08;;
70132;SDS011;57495;49.922;7.966;2024-02-28T05:34:36;42.90;;;17.73;;
70132;SDS011;57495;49.922;7.966;2024-02-28T05:36:37;38.28;;;16.70;;
70132;SDS011;57495;49.922;7.966;2024-02-28T05:38:39;41.92;;;18.67;;
70132;SDS011;57495;49.922;7.966;2024-02-28T05:40:40;42.30;;;18.10;;
70132;SDS011;57495;49.922;7.966;2024-02-28T05:42:42;40.38;;;18.33;;
70132;SDS011;57495;49.922;7.966;2024-02-28T05:44:43;37.08;;;17.65;;
70132;SDS011;57495;49.922;7.966;2024-02-28T05:46:45;39.88;;;17.00;;
70132;SDS011;57495;49.922;7.966;2024-02-28T05:48:45;38.50;;;16.50;;
70132;SDS011;57495;49.922;7.966;2024-02-28T05:50:50;42.65;;;18.42;;
70132;SDS011;57495;49.922;7.966;2024-02-28T05:52:51;39.45;;;18.27;;
70132;SDS011;57495;49.922;7.966;2024-02-28T05:54:54;41.30;;;17.20;;
70132;SDS011;57495;49.922;7.966;2024-02-28T05:56:55;40.55;;;18.95;;
70132;SDS011;57495;49.922;7.966;2024-02-28T05:58:56;40.83;;;18.85;;
70132;SDS011;57495;49.922;7.966;2024-02-28T06:00:57;38.70;;;17.07;;
70132;SDS011;57495;49.922;7.966;2024-02-28T06:03:00;38.33;;;17.20;;
70132;SDS011;57495;49.922;7.966;2024-02-28T06:05:01;41.38;;;17.00;;
70132;SDS011;57495;49.922;7.966;2024-02-28T06:07:03;42.95;;;19.13;;
70132;SDS011;57495;49.922;7.966;2024-02-28T06:09:05;42.97;;;18.27;;
70132;SDS011;57495;49.922;7.966;2024-02-28T06:11:08;41.70;;;17.75;;
70132;SDS011;57495;49.922;7.966;2024-02-28T06:13:10;38.78;;;16.38;;
70132;SDS011;57495;49.922;7.966;2024-02-28T06:15:16;38.00;;;17.17;;
70132;SDS011;57495;49.922;7.966;2024-02-28T06:17:16;36.35;;;15.77;;
70132;SDS011;57495;49.922;7.966;2024-02-28T06:19:18;37.50;;;16.50;;
70132;SDS011;57495;49.922;7.966;2024-02-28T06:21:21;36.53;;;15.82;;
70132;SDS011;57495;49.922;7.966;2024-02-28T06:23:23;41.63;;;16.33;;
70132;SDS011;57495;49.922;7.966;2024-02-28T06:25:27;35.90;;;15.68;;
70132;SDS011;57495;49.922;7.966;2024-02-28T06:27:30;38.72;;;15.60;;
70132;SDS011;57495;49.922;7.966;2024-02-28T06:29:34;40.83;;;16.77;;
70132;SDS011;57495;49.922;7.966;2024-02-28T06:31:36;36.58;;;15.57;;
70132;SDS011;57495;49.922;7.966;2024-02-28T06:33:37;40.72;;;18.73;;
70132;SDS011;57495;49.922;7.966;2024-02-28T06:35:39;44.50;;;18.13;;
70132;SDS011;57495;49.922;7.966;2024-02-28T06:37:40;44.92;;;18.75;;
70132;SDS011;57495;49.922;7.966;2024-02-28T06:39:44;40.13;;;16.97;;
70132;SDS011;57495;49.922;7.966;2024-02-28T06:41:44;41.03;;;17.20;;
70132;SDS011;57495;49.922;7.966;2024-02-28T06:43:47;37.53;;;16.50;;
70132;SDS011;57495;49.922;7.966;2024-02-28T06:45:47;37.17;;;15.88;;
70132;SDS011;57495;49.922;7.966;2024-02-28T06:47:49;36.30;;;15.75;;
70132;SDS011;57495;49.922;7.966;2024-02-28T06:49:51;39.42;;;16.67;;
70132;SDS011;57495;49.922;7.966;2024-02-28T06:51:52;34.28;;;15.80;;
70132;SDS011;57495;49.922;7.966;2024-02-28T06:53:53;34.40;;;15.13;;
70132;SDS011;57495;49.922;7.966;2024-02-28T06:55:55;33.65;;;14.18;;
70132;SDS011;57495;49.922;7.966;2024-02-28T06:57:56;35.85;;;15.40;;
70132;SDS011;57495;49.922;7.966;2024-02-28T06:59:59;36.00;;;15.65;;
70132;SDS011;57495;49.922;7.966;2024-02-28T07:02:00;34.92;;;16.25;;
70132;SDS011;57495;49.922;7.966;2024-02-28T07:04:02;38.13;;;16.43;;
70132;SDS011;57495;49.922;7.966;2024-02-28T07:06:03;36.33;;;15.27;;
70132;SDS011;57495;49.922;7.966;2024-02-28T07:08:05;46.45;;;20.58;;
70132;SDS011;57495;49.922;7.966;2024-02-28T07:10:06;34.85;;;15.63;;
70132;SDS011;57495;49.922;7.966;2024-02-28T07:12:08;39.50;;;16.65;;
70132;SDS011;57495;49.922;7.966;2024-02-28T07:14:09;39.67;;;17.60;;
70132;SDS011;57495;49.922;7.966;2024-02-28T07:16:12;35.25;;;15.40;;
70132;SDS011;57495;49.922;7.966;2024-02-28T07:18:13;38.13;;;16.83;;
70132;SDS011;57495;49.922;7.966;2024-02-28T07:20:15;39.72;;;16.63;;
70132;SDS011;57495;49.922;7.966;2024-02-28T07:22:17;38.28;;;16.95;;
70132;SDS011;57495;49.922;7.966;2024-02-28T07:24:17;37.73;;;17.23;;
70132;SDS011;57495;49.922;7.966;2024-02-28T07:26:21;41.92;;;18.70;;
70132;SDS011;57495;49.922;7.966;2024-02-28T07:28:22;42.42;;;18.25;;
70132;SDS011;57495;49.922;7.966;2024-02-28T07:30:23;44.93;;;18.73;;
70132;SDS011;57495;49.922;7.966;2024-02-28T07:32:27;46.30;;;21.58;;
70132;SDS011;57495;49.922;7.966;2024-02-28T07:34:28;48.83;;;19.23;;
70132;SDS011;57495;49.922;7.966;2024-02-28T07:36:30;39.30;;;17.88;;
70132;SDS011;57495;49.922;7.966;2024-02-28T07:38:31;43.75;;;19.23;;
70132;SDS011;57495;49.922;7.966;2024-02-28T07:40:32;43.50;;;18.60;;
70132;SDS011;57495;49.922;7.966;2024-02-28T07:42:34;38.22;;;17.05;;
70132;SDS011;57495;49.922;7.966;2024-02-28T07:44:35;40.37;;;17.80;;
70132;SDS011;57495;49.922;7.966;2024-02-28T07:46:36;40.22;;;18.77;;
70132;SDS011;57495;49.922;7.966;2024-02-28T07:48:39;41.75;;;17.67;;
70132;SDS011;57495;49.922;7.966;2024-02-28T07:50:40;42.20;;;19.15;;
70132;SDS011;57495;49.922;7.966;2024-02-28T07:52:42;39.80;;;17.27;;
70132;SDS011;57495;49.922;7.966;2024-02-28T07:54:43;45.03;;;17.67;;
70132;SDS011;57495;49.922;7.966;2024-02-28T07:56:43;41.05;;;18.40;;
70132;SDS011;57495;49.922;7.966;2024-02-28T07:58:45;40.05;;;17.48;;
70132;SDS011;57495;49.922;7.966;2024-02-28T08:00:47;40.17;;;17.38;;
70132;SDS011;57495;49.922;7.966;2024-02-28T08:02:48;37.97;;;16.77;;
70132;SDS011;57495;49.922;7.966;2024-02-28T08:04:50;38.37;;;16.87;;
70132;SDS011;57495;49.922;7.966;2024-02-28T08:06:52;39.10;;;16.48;;
70132;SDS011;57495;49.922;7.966;2024-02-28T08:08:53;36.45;;;15.88;;
70132;SDS011;57495;49.922;7.966;2024-02-28T08:10:54;37.75;;;15.57;;
70132;SDS011;57495;49.922;7.966;2024-02-28T08:12:56;35.63;;;16.30;;
70132;SDS011;57495;49.922;7.966;2024-02-28T08:14:57;36.85;;;15.50;;
70132;SDS011;57495;49.922;7.966;2024-02-28T08:16:59;34.72;;;15.20;;
70132;SDS011;57495;49.922;7.966;2024-02-28T08:19:00;34.85;;;15.02;;
70132;SDS011;57495;49.922;7.966;2024-02-28T08:21:03;37.67;;;15.65;;
70132;SDS011;57495;49.922;7.966;2024-02-28T08:23:05;32.92;;;15.38;;
70132;SDS011;57495;49.922;7.966;2024-02-28T08:25:07;32.15;;;13.77;;
70132;SDS011;57495;49.922;7.966;2024-02-28T08:27:11;33.35;;;14.50;;
70132;SDS011;57495;49.922;7.966;2024-02-28T08:29:12;29.58;;;13.05;;
70132;SDS011;57495;49.922;7.966;2024-02-28T08:31:14;33.85;;;14.90;;
70132;SDS011;57495;49.922;7.966;2024-02-28T08:33:15;31.60;;;14.98;;
70132;SDS011;57495;49.922;7.966;2024-02-28T08:35:19;33.47;;;14.65;;
70132;SDS011;57495;49.922;7.966;2024-02-28T08:37:24;37.50;;;15.23;;
70132;SDS011;57495;49.922;7.966;2024-02-28T08:39:27;33.15;;;13.93;;
70132;SDS011;57495;49.922;7.966;2024-02-28T08:41:28;37.20;;;14.80;;
70132;SDS011;57495;49.922;7.966;2024-02-28T08:43:30;34.30;;;15.13;;
70132;SDS011;57495;49.922;7.966;2024-02-28T08:45:31;34.50;;;15.95;;
70132;SDS011;57495;49.922;7.966;2024-02-28T08:47:33;32.35;;;15.60;;
70132;SDS011;57495;49.922;7.966;2024-02-28T08:49:34;34.50;;;15.43;;
70132;SDS011;57495;49.922;7.966;2024-02-28T08:51:35;37.45;;;15.73;;
70132;SDS011;57495;49.922;7.966;2024-02-28T08:53:38;36.58;;;15.40;;
70132;SDS011;57495;49.922;7.966;2024-02-28T08:55:38;36.50;;;15.32;;
70132;SDS011;57495;49.922;7.966;2024-02-28T08:57:40;36.78;;;15.70;;
70132;SDS011;57495;49.922;7.966;2024-02-28T08:59:40;35.00;;;16.20;;
70132;SDS011;57495;49.922;7.966;2024-02-28T09:01:42;33.55;;;15.60;;
70132;SDS011;57495;49.922;7.966;2024-02-28T09:03:43;35.05;;;16.42;;
70132;SDS011;57495;49.922;7.966;2024-02-28T09:05:44;32.57;;;14.47;;
70132;SDS011;57495;49.922;7.966;2024-02-28T09:07:45;34.67;;;15.55;;
70132;SDS011;57495;49.922;7.966;2024-02-28T09:09:52;37.83;;;17.65;;
70132;SDS011;57495;49.922;7.966;2024-02-28T09:11:53;60.08;;;28.40;;
70132;SDS011;57495;49.922;7.966;2024-02-28T09:13:55;70.38;;;35.50;;
70132;SDS011;57495;49.922;7.966;2024-02-28T09:15:56;37.90;;;17.42;;
70132;SDS011;57495;49.922;7.966;2024-02-28T09:17:58;34.65;;;16.60;;
70132;SDS011;57495;49.922;7.966;2024-02-28T09:20:00;37.60;;;17.38;;
70132;SDS011;57495;49.922;7.966;2024-02-28T09:22:04;35.17;;;15.70;;
70132;SDS011;57495;49.922;7.966;2024-02-28T09:24:05;36.53;;;15.70;;
70132;SDS011;57495;49.922;7.966;2024-02-28T09:26:08;33.03;;;15.85;;
70132;SDS011;57495;49.922;7.966;2024-02-28T09:28:10;33.70;;;15.48;;
70132;SDS011;57495;49.922;7.966;2024-02-28T09:30:13;36.85;;;16.17;;
70132;SDS011;57495;49.922;7.966;2024-02-28T09:32:15;36.08;;;16.45;;
70132;SDS011;57495;49.922;7.966;2024-02-28T09:34:18;34.35;;;16.30;;
70132;SDS011;57495;49.922;7.966;2024-02-28T09:36:20;34.00;;;15.00;;
70132;SDS011;57495;49.922;7.966;2024-02-28T09:38:21;37.85;;;16.90;;
70132;SDS011;57495;49.922;7.966;2024-02-28T09:40:23;38.50;;;18.10;;
70132;SDS011;57495;49.922;7.966;2024-02-28T09:42:26;33.08;;;16.67;;
70132;SDS011;57495;49.922;7.966;2024-02-28T09:44:26;34.92;;;16.77;;
70132;SDS011;57495;49.922;7.966;2024-02-28T09:46:28;35.55;;;17.02;;
70132;SDS011;57495;49.922;7.966;2024-02-28T09:48:30;35.42;;;16.27;;
70132;SDS011;57495;49.922;7.966;2024-02-28T09:50:34;36.28;;;17.00;;
70132;SDS011;57495;49.922;7.966;2024-02-28T09:52:36;36.00;;;15.93;;
70132;SDS011;57495;49.922;7.966;2024-02-28T09:54:38;35.92;;;16.60;;
70132;SDS011;57495;49.922;7.966;2024-02-28T09:56:39;37.47;;;15.68;;
70132;SDS011;57495;49.922;7.966;2024-02-28T09:58:42;33.72;;;15.98;;
70132;SDS011;57495;49.922;7.966;2024-02-28T10:00:45;36.28;;;15.68;;
70132;SDS011;57495;49.922;7.966;2024-02-28T10:02:48;30.17;;;15.00;;
70132;SDS011;57495;49.922;7.966;2024-02-28T10:04:51;34.95;;;16.33;;
70132;SDS011;57495;49.922;7.966;2024-02-28T10:06:53;36.22;;;16.58;;
70132;SDS011;57495;49.922;7.966;2024-02-28T10:08:54;33.03;;;15.93;;
70132;SDS011;57495;49.922;7.966;2024-02-28T10:10:55;33.78;;;16.08;;
70132;SDS011;57495;49.922;7.966;2024-02-28T10:12:58;34.05;;;16.45;;
70132;SDS011;57495;49.922;7.966;2024-02-28T10:15:01;36.88;;;16.40;;
70132;SDS011;57495;49.922;7.966;2024-02-28T10:17:02;33.73;;;16.17;;
70132;SDS011;57495;49.922;7.966;2024-02-28T10:19:04;33.88;;;16.05;;
70132;SDS011;57495;49.922;7.966;2024-02-28T10:21:08;35.28;;;16.45;;
70132;SDS011;57495;49.922;7.966;2024-02-28T10:23:10;35.25;;;16.27;;
70132;SDS011;57495;49.922;7.966;2024-02-28T10:25:11;34.58;;;16.83;;
70132;SDS011;57495;49.922;7.966;2024-02-28T10:27:15;34.93;;;16.67;;
70132;SDS011;57495;49.922;7.966;2024-02-28T10:29:17;34.72;;;16.08;;
70132;SDS011;57495;49.922;7.966;2024-02-28T10:31:20;31.92;;;16.65;;
70132;SDS011;57495;49.922;7.966;2024-02-28T10:33:25;34.63;;;15.65;;
70132;SDS011;57495;49.922;7.966;2024-02-28T10:35:29;30.73;;;15.00;;
70132;SDS011;57495;49.922;7.966;2024-02-28T10:37:30;31.75;;;15.32;;
70132;SDS011;57495;49.922;7.966;2024-02-28T10:39:35;28.77;;;14.48;;
70132;SDS011;57495;49.922;7.966;2024-02-28T10:41:39;33.38;;;16.33;;
70132;SDS011;57495;49.922;7.966;2024-02-28T10:43:40;35.17;;;17.27;;
70132;SDS011;57495;49.922;7.966;2024-02-28T10:45:43;33.47;;;16.58;;
70132;SDS011;57495;49.922;7.966;2024-02-28T10:47:46;29.63;;;14.68;;
70132;SDS011;57495;49.922;7.966;2024-02-28T10:49:51;31.42;;;15.75;;
70132;SDS011;57495;49.922;7.966;2024-02-28T10:51:52;31.80;;;15.05;;
70132;SDS011;57495;49.922;7.966;2024-02-28T10:53:59;29.98;;;14.30;;
70132;SDS011;57495;49.922;7.966;2024-02-28T10:56:09;32.92;;;15.77;;
70132;SDS011;57495;49.922;7.966;2024-02-28T10:58:12;31.00;;;15.52;;
70132;SDS011;57495;49.922;7.966;2024-02-28T11:00:18;31.33;;;15.20;;
70132;SDS011;57495;49.922;7.966;2024-02-28T11:02:20;28.85;;;15.45;;
70132;SDS011;57495;49.922;7.966;2024-02-28T11:04:24;28.88;;;14.00;;
70132;SDS011;57495;49.922;7.966;2024-02-28T11:06:27;28.38;;;14.57;;
70132;SDS011;57495;49.922;7.966;2024-02-28T11:08:29;31.05;;;15.13;;
70132;SDS011;57495;49.922;7.966;2024-02-28T11:10:31;26.88;;;13.88;;
70132;SDS011;57495;49.922;7.966;2024-02-28T11:12:34;29.85;;;14.88;;
70132;SDS011;57495;49.922;7.966;2024-02-28T11:14:37;29.65;;;14.13;;
70132;SDS011;57495;49.922;7.966;2024-02-28T11:16:38;29.30;;;14.48;;
70132;SDS011;57495;49.922;7.966;2024-02-28T11:18:51;30.15;;;15.27;;
70132;SDS011;57495;49.922;7.966;2024-02-28T11:20:54;29.23;;;13.65;;
70132;SDS011;57495;49.922;7.966;2024-02-28T11:22:56;29.27;;;14.77;;
70132;SDS011;57495;49.922;7.966;2024-02-28T11:24:58;28.05;;;14.00;;
70132;SDS011;57495;49.922;7.966;2024-02-28T11:26:59;28.83;;;13.57;;
70132;SDS011;57495;49.922;7.966;2024-02-28T11:29:00;28.05;;;14.43;;
70132;SDS011;57495;49.922;7.966;2024-02-28T11:31:03;25.42;;;12.93;;
70132;SDS011;57495;49.922;7.966;2024-02-28T11:33:05;26.77;;;12.82;;
70132;SDS011;57495;49.922;7.966;2024-02-28T11:35:08;28.80;;;14.05;;
70132;SDS011;57495;49.922;7.966;2024-02-28T11:37:13;30.25;;;13.73;;
70132;SDS011;57495;49.922;7.966;2024-02-28T11:39:15;26.77;;;13.05;;
70132;SDS011;57495;49.922;7.966;2024-02-28T11:41:24;22.48;;;12.23;;
70132;SDS011;57495;49.922;7.966;2024-02-28T11:43:27;24.30;;;12.13;;
70132;SDS011;57495;49.922;7.966;2024-02-28T11:45:29;27.48;;;12.90;;
70132;SDS011;57495;49.922;7.966;2024-02-28T11:47:31;26.35;;;13.13;;
70132;SDS011;57495;49.922;7.966;2024-02-28T11:49:32;26.83;;;12.97;;
70132;SDS011;57495;49.922;7.966;2024-02-28T11:51:34;25.48;;;13.18;;
70132;SDS011;57495;49.922;7.966;2024-02-28T11:53:35;26.60;;;12.43;;